createdAt,value
2019-05-16T00:01:15.603Z,102223.07
2019-05-16T00:03:48.945Z,102223.06
2019-05-16T00:06:21.145Z,102218.16
2019-05-16T00:08:53.193Z,102219.02
2019-05-16T00:11:24.799Z,102216.33
2019-05-16T00:13:57.830Z,102218.12
2019-05-16T00:16:29.841Z,102216.75
2019-05-16T00:19:01.910Z,102218.55
2019-05-16T00:21:33.747Z,102206.11
2019-05-16T00:24:05.458Z,102205.67
2019-05-16T00:26:38.804Z,102200.77
2019-05-16T00:29:10.674Z,102211.81
2019-05-16T00:31:42.572Z,102211.38
2019-05-16T00:34:14.157Z,102206.52
2019-05-16T00:36:45.803Z,102211.40
2019-05-16T00:39:18.745Z,102212.30
2019-05-16T00:41:50.667Z,102213.22
2019-05-16T00:44:23.141Z,102204.34
2019-05-16T00:46:54.848Z,102210.05
2019-05-16T00:49:28.095Z,102201.66
2019-05-16T00:51:59.746Z,102203.02
2019-05-16T00:54:31.382Z,102207.81
2019-05-16T00:57:05.314Z,102208.73
2019-05-16T00:59:38.436Z,102208.28
2019-05-16T01:02:10.218Z,102201.14
2019-05-16T01:04:41.853Z,102208.19
2019-05-16T01:07:13.848Z,102200.25
2019-05-16T01:09:45.612Z,102200.14
2019-05-16T01:12:17.864Z,102192.17
2019-05-16T01:14:49.490Z,102189.94
2019-05-16T01:17:40.014Z,102180.64
2019-05-16T01:20:11.752Z,102181.53
2019-05-16T01:22:43.365Z,102184.23
2019-05-16T01:25:16.042Z,102173.99
2019-05-16T01:27:47.742Z,102176.19
2019-05-16T01:30:19.378Z,102174.86
2019-05-16T01:32:51.505Z,102178.41
2019-05-16T01:35:23.069Z,102174.82
2019-05-16T01:37:54.913Z,102177.91
2019-05-16T01:40:28.064Z,102184.62
2019-05-16T01:42:59.781Z,102182.00
2019-05-16T01:45:31.338Z,102181.11
2019-05-16T01:48:03.144Z,102180.67
2019-05-16T01:50:34.831Z,102174.42
2019-05-16T01:53:08.665Z,102179.77
2019-05-16T01:55:40.398Z,102176.19
2019-05-16T01:58:12.282Z,102176.65
2019-05-16T02:00:52.431Z,102176.19
2019-05-16T02:03:18.988Z,102180.17
2019-05-16T02:05:51.889Z,102168.64
2019-05-16T02:08:28.503Z,102167.34
2019-05-16T02:10:59.770Z,102176.61
2019-05-16T02:13:31.392Z,102172.63
2019-05-16T02:16:02.978Z,102168.17
2019-05-16T02:18:34.821Z,102164.50
2019-05-16T02:21:07.852Z,102160.13
2019-05-16T02:23:39.711Z,102160.98
2019-05-16T02:26:11.484Z,102160.86
2019-05-16T02:28:43.937Z,102157.69
2019-05-16T02:31:22.404Z,102159.91
2019-05-16T02:33:53.246Z,102155.05
2019-05-16T02:36:24.979Z,102152.86
2019-05-16T02:38:56.568Z,102143.55
2019-05-16T02:41:31.051Z,102147.50
2019-05-16T02:44:01.579Z,102150.19
2019-05-16T02:46:33.189Z,102147.92
2019-05-16T02:49:04.923Z,102147.39
2019-05-16T02:51:36.650Z,102154.08
2019-05-16T02:54:11.087Z,102146.55
2019-05-16T02:56:42.029Z,102147.40
2019-05-16T02:59:13.743Z,102142.94
2019-05-16T03:01:46.589Z,102131.94
2019-05-16T03:04:21.120Z,102134.98
2019-05-16T03:06:53.483Z,102134.07
2019-05-16T03:09:30.429Z,102133.59
2019-05-16T03:12:03.962Z,102125.20
2019-05-16T03:14:36.121Z,102124.31
2019-05-16T03:17:07.912Z,102112.79
2019-05-16T03:19:41.812Z,102109.70
2019-05-16T03:22:21.583Z,102111.41
2019-05-16T03:24:52.031Z,102102.86
2019-05-16T03:27:23.625Z,102104.18
2019-05-16T03:29:55.183Z,102107.31
2019-05-16T03:32:26.837Z,102102.02
2019-05-16T03:35:04.119Z,102097.97
2019-05-16T03:37:48.377Z,102098.45
2019-05-16T03:40:05.453Z,102094.41
2019-05-16T03:42:37.287Z,102093.89
2019-05-16T03:45:10.817Z,102094.84
2019-05-16T03:47:45.678Z,102087.66
2019-05-16T03:50:21.549Z,102088.98
2019-05-16T03:52:51.303Z,102097.00
2019-05-16T03:55:22.903Z,102092.92
2019-05-16T03:57:54.477Z,102090.25
2019-05-16T04:01:10.813Z,102092.00
2019-05-16T04:03:41.576Z,102092.92
2019-05-16T04:06:13.504Z,102092.55
2019-05-16T04:08:45.078Z,102092.13
2019-05-16T04:11:19.550Z,102093.04
2019-05-16T04:13:50.884Z,102089.59
2019-05-16T04:16:24.152Z,102093.63
2019-05-16T04:18:57.096Z,102090.49
2019-05-16T04:21:32.269Z,102092.72
2019-05-16T04:24:02.728Z,102096.70
2019-05-16T04:26:36.010Z,102086.09
2019-05-16T04:29:11.471Z,102094.58
2019-05-16T04:31:41.878Z,102087.48
2019-05-16T04:34:13.650Z,102093.63
2019-05-16T04:36:45.516Z,102092.88
2019-05-16T04:39:20.625Z,102087.09
2019-05-16T04:41:51.094Z,102088.90
2019-05-16T04:44:22.747Z,102091.17
2019-05-16T04:46:54.301Z,102093.39
2019-05-16T04:49:27.784Z,102089.38
2019-05-16T04:52:00.639Z,102092.06
2019-05-16T04:54:32.465Z,102099.98
2019-05-16T04:57:04.293Z,102099.52
2019-05-16T04:59:36.066Z,102101.80
2019-05-16T05:02:08.433Z,102099.52
2019-05-16T05:04:41.527Z,102106.62
2019-05-16T05:07:14.168Z,102106.67
2019-05-16T05:09:45.737Z,102097.00
2019-05-16T05:12:17.331Z,102099.34
2019-05-16T05:14:51.043Z,102092.27
2019-05-16T05:17:24.325Z,102096.26
2019-05-16T05:19:55.938Z,102088.64
2019-05-16T05:22:27.740Z,102089.58
2019-05-16T05:25:00.122Z,102087.47
2019-05-16T05:27:34.037Z,102083.91
2019-05-16T05:30:06.180Z,102087.96
2019-05-16T05:32:38.004Z,102083.98
2019-05-16T05:35:10.849Z,102095.00
2019-05-16T05:37:42.659Z,102087.56
2019-05-16T05:40:14.977Z,102083.11
2019-05-16T05:42:46.612Z,102079.66
2019-05-16T05:45:20.104Z,102077.67
2019-05-16T05:47:51.562Z,102072.45
2019-05-16T05:50:24.102Z,102081.31
2019-05-16T05:52:55.640Z,102075.21
2019-05-16T05:55:27.414Z,102066.40
2019-05-16T05:58:01.012Z,102068.64
2019-05-16T06:00:32.335Z,102076.22
2019-05-16T06:03:03.946Z,102082.88
2019-05-16T06:05:35.421Z,102076.08
2019-05-16T06:08:07.350Z,102072.94
2019-05-16T06:10:40.556Z,102073.41
2019-05-16T06:13:13.687Z,102077.36
2019-05-16T06:15:45.348Z,102062.80
2019-05-16T06:18:16.928Z,102069.53
2019-05-16T06:20:50.872Z,102065.95
2019-05-16T06:23:21.734Z,102054.44
2019-05-16T06:25:53.286Z,102059.72
2019-05-16T06:28:24.847Z,102061.88
2019-05-16T06:30:57.478Z,102057.89
2019-05-16T06:33:30.493Z,102049.58
2019-05-16T06:36:02.466Z,102050.02
2019-05-16T06:38:34.039Z,102047.33
2019-05-16T06:41:05.569Z,102051.84
2019-05-16T06:43:37.337Z,102051.81
2019-05-16T06:46:11.048Z,102030.81
2019-05-16T06:48:44.722Z,102034.09
2019-05-16T06:51:16.286Z,102032.78
2019-05-16T06:53:49.819Z,102039.87
2019-05-16T06:56:21.176Z,102039.84
2019-05-16T06:58:52.730Z,102031.85
2019-05-16T07:01:24.261Z,102040.73
2019-05-16T07:03:55.760Z,102037.63
2019-05-16T07:06:50.409Z,102035.41
2019-05-16T07:09:01.208Z,102036.32
2019-05-16T07:11:34.112Z,102033.66
2019-05-16T07:14:05.731Z,102032.73
2019-05-16T07:16:37.225Z,102031.73
2019-05-16T07:19:10.445Z,102026.80
2019-05-16T07:21:42.546Z,102025.36
2019-05-16T07:24:16.992Z,102021.13
2019-05-16T07:26:50.019Z,102027.12
2019-05-16T07:29:21.083Z,102029.96
2019-05-16T07:31:53.085Z,102015.80
2019-05-16T07:34:24.551Z,102017.02
2019-05-16T07:36:56.706Z,102014.44
2019-05-16T07:39:30.731Z,102028.70
2019-05-16T07:42:01.808Z,102022.14
2019-05-16T07:44:33.327Z,102017.27
2019-05-16T07:47:06.479Z,102025.67
2019-05-16T07:49:37.999Z,102015.42
2019-05-16T07:52:10.196Z,102014.89
2019-05-16T07:54:41.961Z,102014.39
2019-05-16T07:57:19.626Z,102012.69
2019-05-16T07:59:47.167Z,102019.75
2019-05-16T08:02:20.829Z,102013.47
2019-05-16T08:04:52.067Z,102009.52
2019-05-16T08:07:23.621Z,102007.94
2019-05-16T08:09:55.169Z,102006.17
2019-05-16T08:12:27.278Z,102001.22
2019-05-16T08:15:00.715Z,102005.53
2019-05-16T08:17:32.319Z,101981.14
2019-05-16T08:20:03.884Z,101981.52
2019-05-16T08:22:35.326Z,101986.22
2019-05-16T08:25:07.550Z,101985.17
2019-05-16T08:27:41.437Z,101981.92
2019-05-16T08:30:13.685Z,101989.72
2019-05-16T08:32:45.470Z,101980.38
2019-05-16T08:35:21.127Z,101980.89
2019-05-16T08:37:51.761Z,101979.96
2019-05-16T08:40:23.678Z,101976.39
2019-05-16T08:42:55.583Z,101960.02
2019-05-16T08:45:27.338Z,101973.98
2019-05-16T08:48:00.248Z,101973.11
2019-05-16T08:50:34.961Z,101963.34
2019-05-16T08:53:05.541Z,101972.75
2019-05-16T08:55:37.114Z,101958.23
2019-05-16T08:58:13.478Z,101957.61
2019-05-16T09:00:43.046Z,101966.33
2019-05-16T09:03:14.543Z,101951.98
2019-05-16T09:05:46.064Z,101949.31
2019-05-16T09:08:18.124Z,101934.56
2019-05-16T09:11:01.700Z,101943.83
2019-05-16T09:13:27.623Z,101960.88
2019-05-16T09:15:58.093Z,101951.04
2019-05-16T09:18:40.776Z,101952.76
2019-05-16T09:21:07.182Z,101947.78
2019-05-16T09:23:38.570Z,101938.42
2019-05-16T09:26:10.300Z,101924.92
2019-05-16T09:28:43.926Z,101946.25
2019-05-16T09:31:17.871Z,101939.10
2019-05-16T09:33:49.042Z,101936.55
2019-05-16T09:36:20.640Z,101930.09
2019-05-16T09:38:52.225Z,101939.34
2019-05-16T09:41:23.617Z,101946.95
2019-05-16T09:43:58.639Z,101943.52
2019-05-16T09:46:28.529Z,101938.34
2019-05-16T09:49:15.688Z,101938.48
2019-05-16T09:51:33.259Z,101936.92
2019-05-16T09:54:07.210Z,101924.59
2019-05-16T09:56:38.374Z,101927.94
2019-05-16T09:59:09.916Z,101928.77
2019-05-16T10:01:41.420Z,101933.47
2019-05-16T10:04:12.984Z,101924.97
2019-05-16T10:06:44.787Z,101928.29
2019-05-16T10:09:17.773Z,101914.73
2019-05-16T10:11:58.954Z,101919.09
2019-05-16T10:14:22.490Z,101914.03
2019-05-16T10:16:54.009Z,101917.87
2019-05-16T10:19:27.580Z,101914.75
2019-05-16T10:22:00.338Z,101913.33
2019-05-16T10:24:32.008Z,101908.66
2019-05-16T10:27:06.445Z,101889.12
2019-05-16T10:29:38.820Z,101912.13
2019-05-16T10:32:10.287Z,101905.70
2019-05-16T10:34:41.866Z,101901.14
2019-05-16T10:37:13.377Z,101895.62
2019-05-16T10:39:46.925Z,101889.92
2019-05-16T10:42:28.147Z,101885.83
2019-05-16T10:44:51.359Z,101882.59
2019-05-16T10:47:22.880Z,101890.00
2019-05-16T10:49:56.454Z,101877.48
2019-05-16T10:52:27.530Z,101881.85
2019-05-16T10:55:02.482Z,101875.42
2019-05-16T10:57:34.203Z,101866.66
2019-05-16T11:00:18.081Z,101867.81
2019-05-16T11:02:40.845Z,101860.99
2019-05-16T11:05:25.005Z,101857.11
2019-05-16T11:07:48.536Z,101853.52
2019-05-16T11:10:19.789Z,101837.00
2019-05-16T11:12:55.350Z,101844.30
2019-05-16T11:15:27.579Z,101838.07
2019-05-16T11:18:00.011Z,101836.70
2019-05-16T11:20:31.136Z,101837.68
2019-05-16T11:23:02.815Z,101835.73
2019-05-16T11:25:36.778Z,101835.28
2019-05-16T11:28:08.493Z,101833.05
2019-05-16T11:30:41.295Z,101828.73
2019-05-16T11:33:12.796Z,101831.56
2019-05-16T11:35:47.326Z,101819.80
2019-05-16T11:38:18.040Z,101826.25
2019-05-16T11:40:50.224Z,101818.97
2019-05-16T11:43:22.068Z,101825.28
2019-05-16T11:45:54.008Z,101827.28
2019-05-16T11:48:29.028Z,101811.63
2019-05-16T11:50:58.835Z,101809.06
2019-05-16T11:53:30.587Z,101808.96
2019-05-16T11:56:02.358Z,101803.86
2019-05-16T11:58:34.070Z,101798.44
2019-05-16T12:01:07.517Z,101803.63
2019-05-16T12:03:39.028Z,101809.14
2019-05-16T12:06:11.330Z,101798.72
2019-05-16T12:08:42.920Z,101805.96
2019-05-16T12:11:14.702Z,101792.70
2019-05-16T12:13:47.642Z,101784.28
2019-05-16T12:16:19.792Z,101780.08
2019-05-16T12:18:51.446Z,101788.58
2019-05-16T12:21:23.036Z,101785.87
2019-05-16T12:23:54.547Z,101774.29
2019-05-16T12:26:28.218Z,101765.12
2019-05-16T12:28:59.294Z,101762.98
2019-05-16T12:31:32.566Z,101755.61
2019-05-16T12:34:04.216Z,101744.73
2019-05-16T12:36:37.873Z,101756.60
2019-05-16T12:39:10.325Z,101747.35
2019-05-16T12:41:41.910Z,101742.64
2019-05-16T12:44:13.482Z,101737.81
2019-05-16T12:46:47.545Z,101743.22
2019-05-16T12:49:19.333Z,101737.83
2019-05-16T12:51:53.627Z,101732.73
2019-05-16T12:54:27.501Z,101731.80
2019-05-16T12:56:58.439Z,101733.39
2019-05-16T12:59:30.235Z,101723.77
2019-05-16T13:02:01.803Z,101710.31
2019-05-16T13:04:33.748Z,101710.59
2019-05-16T13:07:09.211Z,101702.02
2019-05-16T13:09:39.712Z,101702.38
2019-05-16T13:12:11.301Z,101690.78
2019-05-16T13:14:43.093Z,101689.01
2019-05-16T13:17:16.674Z,101689.33
2019-05-16T13:19:48.446Z,101694.70
2019-05-16T13:22:20.164Z,101691.41
2019-05-16T13:24:51.950Z,101686.27
2019-05-16T13:27:23.691Z,101676.50
2019-05-16T13:29:58.015Z,101666.67
2019-05-16T13:32:28.634Z,101672.97
2019-05-16T13:35:00.242Z,101668.98
2019-05-16T13:37:31.761Z,101647.41
2019-05-16T13:40:03.412Z,101662.96
2019-05-16T13:42:36.854Z,101651.95
2019-05-16T13:45:09.357Z,101649.16
2019-05-16T13:47:40.937Z,101651.67
2019-05-16T13:50:13.313Z,101635.81
2019-05-16T13:52:47.926Z,101649.48
2019-05-16T13:55:19.266Z,101640.20
2019-05-16T13:57:51.225Z,101634.84
2019-05-16T14:00:24.015Z,101628.13
2019-05-16T14:02:58.345Z,101632.06
2019-05-16T14:05:31.570Z,101624.58
2019-05-16T14:08:03.126Z,101609.72
2019-05-16T14:10:37.385Z,101614.33
2019-05-16T14:13:08.285Z,101601.98
2019-05-16T14:15:39.831Z,101600.39
2019-05-16T14:18:17.669Z,101578.52
2019-05-16T14:20:49.764Z,101589.66
2019-05-16T14:23:24.243Z,101588.64
2019-05-16T14:25:57.829Z,101586.28
2019-05-16T14:28:29.153Z,101573.80
2019-05-16T14:31:01.306Z,101581.31
2019-05-16T14:33:32.881Z,101575.16
2019-05-16T14:36:07.396Z,101571.51
2019-05-16T14:38:38.792Z,101562.96
2019-05-16T14:41:10.447Z,101537.05
2019-05-16T14:43:42.214Z,101545.78
2019-05-16T14:46:14.052Z,101550.38
2019-05-16T14:48:45.751Z,101551.64
2019-05-16T14:51:18.163Z,101543.58
2019-05-16T14:53:49.919Z,101546.78
2019-05-16T14:56:21.715Z,101536.95
2019-05-16T14:58:57.706Z,101543.11
2019-05-16T15:01:29.019Z,101530.45
2019-05-16T15:04:00.916Z,101529.28
2019-05-16T15:06:32.588Z,101531.46
2019-05-16T15:09:07.358Z,101522.57
2019-05-16T15:11:38.793Z,101517.99
2019-05-16T15:14:10.425Z,101522.06
2019-05-16T15:16:42.117Z,101518.75
2019-05-16T15:19:13.706Z,101508.28
2019-05-16T15:21:47.669Z,101506.52
2019-05-16T15:24:19.670Z,101508.55
2019-05-16T15:26:51.230Z,101504.20
2019-05-16T15:29:22.925Z,101494.30
2019-05-16T15:31:57.224Z,101482.28
2019-05-16T15:34:30.284Z,101490.11
2019-05-16T15:37:01.407Z,101483.97
2019-05-16T15:39:37.147Z,101470.87
2019-05-16T15:42:08.172Z,101475.65
2019-05-16T15:44:40.224Z,101467.27
2019-05-16T15:47:11.851Z,101456.27
2019-05-16T15:49:47.734Z,101457.50
2019-05-16T15:52:20.207Z,101449.70
2019-05-16T15:54:52.454Z,101445.47
2019-05-16T15:57:26.792Z,101443.17
2019-05-16T15:59:57.804Z,101448.92
2019-05-16T16:02:29.582Z,101438.37
2019-05-16T16:05:01.401Z,101440.87
2019-05-16T16:07:33.500Z,101437.48
2019-05-16T16:10:07.032Z,101431.81
2019-05-16T16:12:41.644Z,101434.55
2019-05-16T16:15:14.404Z,101428.69
2019-05-16T16:17:47.433Z,101415.13
2019-05-16T16:20:19.029Z,101415.80
2019-05-16T16:22:53.635Z,101425.98
2019-05-16T16:25:26.824Z,101413.48
2019-05-16T16:27:58.492Z,101410.61
2019-05-16T16:30:30.153Z,101402.53
2019-05-16T16:33:02.026Z,101399.34
2019-05-16T16:35:37.570Z,101405.83
2019-05-16T16:38:08.003Z,101390.41
2019-05-16T16:40:39.686Z,101388.83
2019-05-16T16:43:11.487Z,101383.25
2019-05-16T16:45:43.283Z,101392.02
2019-05-16T16:48:17.189Z,101374.12
2019-05-16T16:50:48.618Z,101386.90
2019-05-16T16:53:20.536Z,101392.90
2019-05-16T16:55:56.649Z,101388.84
2019-05-16T16:58:27.284Z,101372.56
2019-05-16T17:01:01.425Z,101380.78
2019-05-16T17:03:32.352Z,101378.89
2019-05-16T17:06:03.972Z,101370.96
2019-05-16T17:08:37.485Z,101366.66
2019-05-16T17:11:09.309Z,101356.85
2019-05-16T17:13:40.987Z,101362.49
2019-05-16T17:16:25.219Z,101363.83
2019-05-16T17:18:47.581Z,101352.36
2019-05-16T17:21:21.719Z,101357.23
2019-05-16T17:23:53.666Z,101362.66
2019-05-16T17:26:27.426Z,101349.97
2019-05-16T17:28:58.980Z,101348.41
2019-05-16T17:31:30.723Z,101344.02
2019-05-16T17:34:02.308Z,101343.27
2019-05-16T17:36:33.868Z,101334.52
2019-05-16T17:39:06.599Z,101332.33
2019-05-16T17:41:38.472Z,101333.91
2019-05-16T17:44:10.473Z,101324.92
2019-05-16T17:46:42.158Z,101331.45
2019-05-16T17:49:13.888Z,101324.69
2019-05-16T17:51:47.234Z,101332.88
2019-05-16T17:54:19.044Z,101326.77
2019-05-16T17:56:51.559Z,101317.72
2019-05-16T17:59:23.157Z,101320.45
2019-05-16T18:01:56.872Z,101316.86
2019-05-16T18:04:28.118Z,101311.30
2019-05-16T18:06:59.840Z,101315.77
2019-05-16T18:09:31.570Z,101299.19
2019-05-16T18:12:03.295Z,101317.59
2019-05-16T18:14:37.115Z,101308.05
2019-05-16T18:17:08.106Z,101304.03
2019-05-16T18:19:39.642Z,101312.23
2019-05-16T18:22:11.783Z,101308.53
2019-05-16T18:24:43.413Z,101311.92
2019-05-16T18:27:17.142Z,101309.76
2019-05-16T18:29:48.334Z,101313.50
2019-05-16T18:32:20.223Z,101307.31
2019-05-16T18:34:52.008Z,101301.91
2019-05-16T18:37:23.978Z,101290.08
2019-05-16T18:39:56.448Z,101295.28
2019-05-16T18:42:29.344Z,101300.91
2019-05-16T18:45:01.090Z,101297.25
2019-05-16T18:47:34.365Z,101288.72
2019-05-16T18:50:06.864Z,101296.34
2019-05-16T18:52:39.562Z,101293.09
2019-05-16T18:55:11.211Z,101292.53
2019-05-16T18:57:42.943Z,101292.79
2019-05-16T19:00:17.914Z,101295.88
2019-05-16T19:02:49.364Z,101287.19
2019-05-16T19:05:21.205Z,101290.05
2019-05-16T19:07:53.001Z,101288.13
2019-05-16T19:10:26.985Z,101285.55
2019-05-16T19:12:59.760Z,101287.11
2019-05-16T19:15:31.858Z,101290.45
2019-05-16T19:18:03.448Z,101287.86
2019-05-16T19:20:37.173Z,101294.19
2019-05-16T19:23:08.499Z,101283.72
2019-05-16T19:25:42.282Z,101282.78
2019-05-16T19:28:13.876Z,101293.77
2019-05-16T19:30:47.149Z,101292.12
2019-05-16T19:33:18.905Z,101291.16
2019-05-16T19:35:50.489Z,101299.97
2019-05-16T19:38:28.909Z,101302.08
2019-05-16T19:40:57.683Z,101298.48
2019-05-16T19:43:29.870Z,101288.13
2019-05-16T19:46:02.038Z,101294.39
2019-05-16T19:48:33.689Z,101301.02
2019-05-16T19:51:07.489Z,101303.69
2019-05-16T19:53:38.993Z,101293.34
2019-05-16T19:56:11.402Z,101297.50
2019-05-16T19:58:46.795Z,101297.47
2019-05-16T20:01:18.588Z,101299.92
2019-05-16T20:03:50.773Z,101302.16
2019-05-16T20:06:22.838Z,101295.67
2019-05-16T20:08:54.699Z,101290.84
2019-05-16T20:11:28.615Z,101288.11
2019-05-16T20:14:00.220Z,101294.55
2019-05-16T20:16:33.258Z,101310.27
2019-05-16T20:19:06.523Z,101290.07
2019-05-16T20:21:40.468Z,101300.92
2019-05-16T20:24:12.733Z,101287.73
2019-05-16T20:26:46.427Z,101289.06
2019-05-16T20:29:18.230Z,101291.19
2019-05-16T20:31:50.109Z,101292.45
2019-05-16T20:34:24.027Z,101288.20
2019-05-16T20:36:57.240Z,101284.34
2019-05-16T20:39:29.192Z,101280.94
2019-05-16T20:42:00.962Z,101286.06
2019-05-16T20:44:32.668Z,101285.76
2019-05-16T20:47:07.226Z,101276.05
2019-05-16T20:49:38.842Z,101272.56
2019-05-16T20:52:10.920Z,101279.96
2019-05-16T20:54:42.561Z,101275.97
2019-05-16T20:57:14.383Z,101272.50
2019-05-16T20:59:46.361Z,101269.78
2019-05-16T21:02:22.528Z,101266.61
2019-05-16T21:04:54.065Z,101263.78
2019-05-16T21:07:26.442Z,101264.67
2019-05-16T21:09:59.015Z,101251.77
2019-05-16T21:12:31.299Z,101257.33
2019-05-16T21:15:02.884Z,101251.25
2019-05-16T21:17:35.843Z,101251.05
2019-05-16T21:20:09.018Z,101245.58
2019-05-16T21:22:41.572Z,101240.28
2019-05-16T21:25:13.639Z,101238.19
2019-05-16T21:27:46.477Z,101238.88
2019-05-16T21:30:19.287Z,101234.19
2019-05-16T21:32:51.475Z,101239.90
2019-05-16T21:35:23.212Z,101232.55
2019-05-16T21:37:55.888Z,101218.39
2019-05-16T21:40:27.660Z,101204.92
2019-05-16T21:42:59.256Z,101214.13
2019-05-16T21:45:30.846Z,101214.72
2019-05-16T21:48:02.465Z,101212.44
2019-05-16T21:50:36.451Z,101210.59
2019-05-16T21:53:07.568Z,101212.95
2019-05-16T21:55:39.132Z,101211.81
2019-05-16T21:58:10.751Z,101209.03
2019-05-16T22:00:47.423Z,101206.81
2019-05-16T22:03:19.359Z,101199.22
2019-05-16T22:05:51.082Z,101202.48
2019-05-16T22:08:23.073Z,101199.78
2019-05-16T22:10:57.269Z,101192.89
2019-05-16T22:13:29.398Z,101193.84
2019-05-16T22:16:01.050Z,101188.00
2019-05-16T22:18:33.008Z,101185.08
2019-05-16T22:21:07.590Z,101178.78
2019-05-16T22:23:39.113Z,101168.26
2019-05-16T22:26:10.655Z,101173.34
2019-05-16T22:28:42.411Z,101166.44
2019-05-16T22:31:16.077Z,101164.77
2019-05-16T22:33:47.410Z,101163.77
2019-05-16T22:36:19.217Z,101151.73
2019-05-16T22:38:51.094Z,101148.62
2019-05-16T22:41:23.454Z,101151.04
2019-05-16T22:43:56.111Z,101143.92
2019-05-16T22:46:28.325Z,101141.74
2019-05-16T22:49:00.367Z,101142.02
2019-05-16T22:51:32.279Z,101137.94
2019-05-16T22:54:04.413Z,101126.29
2019-05-16T22:56:37.530Z,101117.00
2019-05-16T22:59:09.651Z,101125.48
2019-05-16T23:01:41.921Z,101123.58
2019-05-16T23:04:13.534Z,101121.17
2019-05-16T23:06:48.453Z,101116.28
2019-05-16T23:09:22.090Z,101113.08
2019-05-16T23:11:56.322Z,101117.05
2019-05-16T23:14:27.956Z,101109.63
2019-05-16T23:16:59.720Z,101105.64
2019-05-16T23:19:31.333Z,101105.43
2019-05-16T23:22:03.233Z,101097.76
2019-05-16T23:24:36.992Z,101096.05
2019-05-16T23:27:08.659Z,101096.46
2019-05-16T23:29:42.300Z,101090.08
2019-05-16T23:32:13.906Z,101087.67
2019-05-16T23:34:46.613Z,101074.17
2019-05-16T23:37:20.910Z,101085.62
2019-05-16T23:39:52.942Z,101077.76
2019-05-16T23:42:26.329Z,101073.12
2019-05-16T23:44:58.752Z,101077.33
2019-05-16T23:47:30.567Z,101070.94
2019-05-16T23:50:02.210Z,101067.14
2019-05-16T23:52:36.593Z,101068.45
2019-05-16T23:55:08.464Z,101061.95
2019-05-16T23:57:40.183Z,101058.68
